Time;durP1;ratioP1;P1;durP2;ratioP2;P2;SDS_P1;SDS_P2;PMS_P1;PMS_P2;Temp;Humidity;BMP_temperature;BMP_pressure;BME280_temperature;BME280_humidity;BME280_pressure;Samples;Min_cycle;Max_cycle;Signal;HPM_P1;HPM_P2
2022/01/10 00:00:17;;;;;;;16.77;9.43;;;1.60;99.90;;;;;;5054907;28;20181;-90
2022/01/10 00:02:45;;;;;;;14.73;9.63;;;1.60;99.90;;;;;;5054416;28;20189;-90
2022/01/10 00:05:11;;;;;;;12.97;8.77;;;1.60;99.90;;;;;;5055006;28;20173;-89
2022/01/10 00:07:38;;;;;;;14.40;9.13;;;1.60;99.90;;;;;;5054739;28;20170;-89
2022/01/10 00:10:05;;;;;;;14.73;9.23;;;1.60;99.90;;;;;;5054431;28;20189;-89
2022/01/10 00:12:31;;;;;;;12.13;8.63;;;1.60;99.90;;;;;;5054924;28;20201;-89
2022/01/10 00:14:57;;;;;;;13.27;9.27;;;1.70;99.90;;;;;;5054693;28;20192;-89
2022/01/10 00:17:22;;;;;;;13.07;8.97;;;1.70;99.90;;;;;;5054906;28;20208;-89
2022/01/10 00:19:48;;;;;;;13.50;8.70;;;1.70;99.90;;;;;;5054641;28;20185;-89
2022/01/10 00:22:14;;;;;;;12.40;8.47;;;1.70;99.90;;;;;;5054030;28;20255;-89
2022/01/10 00:24:40;;;;;;;14.50;9.10;;;1.70;99.90;;;;;;5037846;28;20189;-89
2022/01/10 00:27:06;;;;;;;12.53;8.43;;;1.60;99.90;;;;;;5036936;28;20188;-89
2022/01/10 00:29:33;;;;;;;13.60;8.67;;;1.50;99.90;;;;;;5037790;28;20193;-89
2022/01/10 00:31:59;;;;;;;12.63;9.47;;;1.50;99.90;;;;;;5038021;28;20201;-89
2022/01/10 00:34:26;;;;;;;13.07;8.37;;;1.50;99.90;;;;;;5037469;28;20185;-89
2022/01/10 00:36:52;;;;;;;14.80;9.30;;;1.50;99.90;;;;;;5037413;28;20227;-89
2022/01/10 00:39:19;;;;;;;14.47;9.37;;;1.40;99.90;;;;;;5037879;28;20178;-89
2022/01/10 00:41:46;;;;;;;13.17;9.40;;;1.40;99.90;;;;;;5037520;28;20243;-89
2022/01/10 00:44:12;;;;;;;12.50;8.93;;;1.40;99.90;;;;;;5054136;28;20188;-89
2022/01/10 00:46:39;;;;;;;14.27;9.33;;;1.40;99.90;;;;;;5037586;28;20181;-89
2022/01/10 00:49:05;;;;;;;12.23;8.63;;;1.30;99.90;;;;;;5037291;28;20206;-89
2022/01/10 00:51:31;;;;;;;15.03;9.00;;;1.30;99.90;;;;;;5037222;28;20209;-89
2022/01/10 00:53:57;;;;;;;12.90;8.87;;;1.30;99.90;;;;;;5037724;28;20185;-89
2022/01/10 00:56:24;;;;;;;13.60;9.67;;;1.30;99.90;;;;;;5037521;28;20208;-89
2022/01/10 00:58:51;;;;;;;13.50;9.60;;;1.30;99.90;;;;;;5037557;28;20181;-89
2022/01/10 01:01:18;;;;;;;12.73;9.43;;;1.30;99.90;;;;;;5037273;28;20224;-89
2022/01/10 01:03:45;;;;;;;14.50;10.03;;;1.30;99.90;;;;;;5037011;28;20548;-89
2022/01/10 01:06:13;;;;;;;13.73;9.20;;;1.40;99.90;;;;;;5037501;28;20287;-89
2022/01/10 01:08:41;;;;;;;13.20;9.17;;;1.40;99.90;;;;;;5037302;28;20177;-89
2022/01/10 01:14:23;;;;;;;13.50;9.30;;;1.40;99.90;;;;;;5009092;28;20174;-89
2022/01/10 01:16:58;;;;;;;12.47;8.60;;;1.40;99.90;;;;;;4988748;28;20211;-89
2022/01/10 01:20:03;;;;;;;13.13;8.97;;;1.30;99.90;;;;;;4993877;28;20196;-90
2022/01/10 01:24:57;;;;;;;13.50;9.07;;;1.30;99.90;;;;;;5053569;28;20183;-89
2022/01/10 01:27:23;;;;;;;13.67;8.80;;;1.20;99.90;;;;;;5037234;28;20180;-89
2022/01/10 01:29:49;;;;;;;14.07;10.13;;;1.20;99.90;;;;;;5037239;28;20189;-89
2022/01/10 01:32:15;;;;;;;15.27;9.43;;;1.20;99.90;;;;;;5037343;28;20295;-89
2022/01/10 01:34:41;;;;;;;14.70;9.50;;;1.20;99.90;;;;;;5038092;28;20196;-89
2022/01/10 01:37:09;;;;;;;15.40;8.80;;;1.20;99.90;;;;;;5038094;28;20200;-89
2022/01/10 01:39:35;;;;;;;12.97;9.30;;;1.20;99.90;;;;;;5037792;28;20177;-90
2022/01/10 01:42:17;;;;;;;11.40;8.83;;;1.20;99.90;;;;;;5037445;28;20299;-89
2022/01/10 01:44:43;;;;;;;12.37;9.13;;;1.20;99.90;;;;;;5036906;28;20173;-89
2022/01/10 01:47:08;;;;;;;13.37;9.47;;;1.20;99.90;;;;;;5036823;28;20199;-89
2022/01/10 01:49:36;;;;;;;15.83;10.23;;;1.20;99.90;;;;;;5036603;28;20210;-89
2022/01/10 01:52:02;;;;;;;13.47;9.57;;;1.10;99.90;;;;;;5036235;28;20216;-89
2022/01/10 01:54:28;;;;;;;14.83;9.23;;;1.10;99.90;;;;;;5036727;28;20178;-89
2022/01/10 01:56:54;;;;;;;12.80;8.77;;;1.00;99.90;;;;;;5036657;28;20274;-89
2022/01/10 01:59:20;;;;;;;14.63;9.80;;;1.00;99.90;;;;;;5036511;28;20186;-89
2022/01/10 02:01:46;;;;;;;14.10;9.67;;;1.00;99.90;;;;;;5036424;28;20330;-89
2022/01/10 02:04:13;;;;;;;12.90;8.97;;;1.00;99.90;;;;;;5036479;28;20657;-89
2022/01/10 02:06:40;;;;;;;11.93;9.17;;;1.00;99.90;;;;;;5036778;28;20188;-89
2022/01/10 02:09:06;;;;;;;16.90;9.93;;;1.10;99.90;;;;;;5036180;28;20183;-89
2022/01/10 02:11:32;;;;;;;12.23;8.70;;;1.10;99.90;;;;;;5036374;28;20311;-89
2022/01/10 02:14:01;;;;;;;11.60;8.40;;;1.10;99.90;;;;;;5036754;28;20181;-89
2022/01/10 02:16:51;;;;;;;11.57;8.23;;;1.20;99.90;;;;;;5037472;28;20211;-89
2022/01/10 02:19:27;;;;;;;13.67;8.77;;;1.20;99.90;;;;;;5037378;28;20181;-89
2022/01/10 02:21:53;;;;;;;11.03;8.40;;;1.20;99.90;;;;;;5032990;28;20201;-89
2022/01/10 02:24:21;;;;;;;12.80;8.80;;;1.20;99.90;;;;;;5016433;28;20178;-89
2022/01/10 02:26:49;;;;;;;13.87;8.53;;;1.20;99.90;;;;;;5016276;28;20182;-89
2022/01/10 02:29:15;;;;;;;12.60;8.90;;;1.20;99.90;;;;;;5032677;28;20270;-89
2022/01/10 02:31:42;;;;;;;13.57;8.60;;;1.20;99.90;;;;;;5016422;28;20243;-89
2022/01/10 02:34:09;;;;;;;11.70;8.23;;;1.20;99.90;;;;;;5032747;28;20224;-89
2022/01/10 02:36:34;;;;;;;13.50;7.97;;;1.20;99.90;;;;;;5032719;28;20217;-89
2022/01/10 02:39:08;;;;;;;12.23;7.53;;;1.30;99.90;;;;;;5015957;28;20193;-89
2022/01/10 02:41:38;;;;;;;11.30;8.23;;;1.30;99.90;;;;;;5032717;28;20204;-89
2022/01/10 02:44:07;;;;;;;10.90;8.17;;;1.30;99.90;;;;;;5032931;28;20188;-89
2022/01/10 02:46:36;;;;;;;14.93;9.33;;;1.30;99.90;;;;;;5032970;28;20209;-89
2022/01/10 02:49:12;;;;;;;14.47;9.00;;;1.30;99.90;;;;;;5033467;28;20192;-89
2022/01/10 02:51:40;;;;;;;14.80;9.73;;;1.30;99.90;;;;;;5050964;28;20211;-89
2022/01/10 02:54:07;;;;;;;12.80;9.40;;;1.30;99.90;;;;;;5043170;28;20189;-89
2022/01/10 02:56:35;;;;;;;12.43;9.40;;;1.30;99.90;;;;;;5019913;28;20236;-89
2022/01/10 02:59:01;;;;;;;12.17;9.17;;;1.30;99.90;;;;;;5019925;28;20174;-89
2022/01/10 03:01:27;;;;;;;14.03;9.20;;;1.30;99.90;;;;;;5019869;28;20186;-89
2022/01/10 03:03:53;;;;;;;11.87;9.10;;;1.30;99.90;;;;;;5019792;28;20235;-89
2022/01/10 03:06:19;;;;;;;13.93;8.77;;;1.30;99.90;;;;;;5019758;28;20212;-89
2022/01/10 03:08:45;;;;;;;10.47;8.00;;;1.30;99.90;;;;;;5019233;28;20174;-89
2022/01/10 03:11:11;;;;;;;9.20;7.30;;;1.30;99.90;;;;;;5019478;28;20205;-89
2022/01/10 03:13:37;;;;;;;12.27;7.60;;;1.30;99.90;;;;;;5019724;28;20231;-89
2022/01/10 03:16:03;;;;;;;11.07;7.13;;;1.30;99.90;;;;;;5019216;28;20235;-89
2022/01/10 03:18:29;;;;;;;12.30;8.30;;;1.30;99.90;;;;;;5019075;28;20188;-89
2022/01/10 03:20:55;;;;;;;10.90;8.17;;;1.30;99.90;;;;;;5027892;28;20299;-89
2022/01/10 03:23:21;;;;;;;12.87;9.17;;;1.40;99.90;;;;;;5039221;28;20314;-89
2022/01/10 03:25:47;;;;;;;12.53;8.53;;;1.40;99.90;;;;;;5039032;28;20186;-89
2022/01/10 03:28:15;;;;;;;14.47;8.83;;;1.40;99.90;;;;;;5038873;28;20285;-89
2022/01/10 03:30:42;;;;;;;10.50;8.37;;;1.40;99.90;;;;;;5039233;28;20173;-89
2022/01/10 03:33:09;;;;;;;12.77;8.70;;;1.40;99.90;;;;;;5039191;28;20192;-89
2022/01/10 03:35:37;;;;;;;9.37;7.53;;;1.40;99.90;;;;;;5039083;28;20173;-89
2022/01/10 03:38:06;;;;;;;12.63;8.13;;;1.40;99.90;;;;;;5038826;28;20627;-89
2022/01/10 03:40:34;;;;;;;11.87;7.90;;;1.40;99.90;;;;;;5039327;28;20188;-89
2022/01/10 03:43:04;;;;;;;10.73;7.60;;;1.40;99.90;;;;;;5039343;28;20178;-89
2022/01/10 03:45:32;;;;;;;9.83;7.77;;;1.40;99.90;;;;;;5038735;28;20196;-89
2022/01/10 03:47:58;;;;;;;10.80;8.13;;;1.30;99.90;;;;;;5038946;28;20207;-89
2022/01/10 03:50:26;;;;;;;10.37;7.93;;;1.30;99.90;;;;;;5038936;28;20188;-89
2022/01/10 03:52:52;;;;;;;12.80;9.07;;;1.30;99.90;;;;;;5038585;28;20196;-89
2022/01/10 03:55:18;;;;;;;11.70;7.83;;;1.30;99.90;;;;;;5038912;28;20192;-89
2022/01/10 03:57:44;;;;;;;10.50;7.73;;;1.30;99.90;;;;;;5038283;28;20262;-89
2022/01/10 04:00:11;;;;;;;12.40;8.00;;;1.30;99.90;;;;;;5038310;28;20185;-89
2022/01/10 04:02:50;;;;;;;12.70;8.07;;;1.20;99.90;;;;;;5055907;28;20317;-89
2022/01/10 04:05:20;;;;;;;10.73;8.10;;;1.30;99.90;;;;;;5038701;28;20176;-89
2022/01/10 04:07:46;;;;;;;10.73;7.80;;;1.30;99.90;;;;;;5038448;28;20184;-89
2022/01/10 04:10:12;;;;;;;12.13;8.70;;;1.30;99.90;;;;;;5038296;28;20189;-89
2022/01/10 04:12:38;;;;;;;11.23;8.63;;;1.30;99.90;;;;;;5037449;28;20201;-89
2022/01/10 04:15:05;;;;;;;13.30;9.40;;;1.30;99.90;;;;;;5037768;28;20189;-89
2022/01/10 04:17:31;;;;;;;13.07;8.67;;;1.30;99.90;;;;;;5037875;28;20311;-89
2022/01/10 04:19:57;;;;;;;12.07;8.87;;;1.40;99.90;;;;;;5038103;28;20188;-89
2022/01/10 04:22:23;;;;;;;13.20;8.60;;;1.40;99.90;;;;;;5054901;28;20205;-89
2022/01/10 04:24:49;;;;;;;12.73;8.40;;;1.40;99.90;;;;;;5054572;28;20191;-89
2022/01/10 04:27:15;;;;;;;11.40;8.83;;;1.40;99.90;;;;;;5038058;28;20185;-89
2022/01/10 04:29:42;;;;;;;11.07;8.40;;;1.40;99.90;;;;;;5054529;28;20200;-89
2022/01/10 04:32:11;;;;;;;11.70;8.00;;;1.40;99.90;;;;;;5045059;28;20193;-89
2022/01/10 04:34:37;;;;;;;11.73;8.97;;;1.40;99.90;;;;;;5044412;28;20188;-89
2022/01/10 04:37:04;;;;;;;11.40;8.67;;;1.30;99.90;;;;;;5034745;28;20201;-89
2022/01/10 04:39:30;;;;;;;22.43;14.07;;;1.30;99.90;;;;;;5056373;28;20192;-88
2022/01/10 04:41:57;;;;;;;19.27;12.47;;;1.30;99.90;;;;;;5038279;28;20196;-89
2022/01/10 04:44:23;;;;;;;16.17;10.57;;;1.30;99.90;;;;;;5037191;28;20234;-88
2022/01/10 04:46:51;;;;;;;17.17;10.37;;;1.30;99.90;;;;;;5038342;28;20185;-88
2022/01/10 04:49:24;;;;;;;14.13;9.30;;;1.30;99.90;;;;;;5038623;28;20272;-89
2022/01/10 04:51:51;;;;;;;14.70;10.40;;;1.30;99.90;;;;;;5055963;28;20215;-88
2022/01/10 04:54:18;;;;;;;15.33;10.93;;;1.30;99.90;;;;;;5039511;28;20188;-89
2022/01/10 04:56:45;;;;;;;14.80;10.63;;;1.30;99.90;;;;;;5039265;28;20222;-88
2022/01/10 04:59:13;;;;;;;14.37;9.33;;;1.30;99.90;;;;;;5038660;28;20200;-88
2022/01/10 05:01:39;;;;;;;12.60;9.20;;;1.30;99.90;;;;;;5036942;28;20215;-87
2022/01/10 05:04:07;;;;;;;11.83;8.93;;;1.20;99.90;;;;;;5037404;28;20271;-88
2022/01/10 05:06:33;;;;;;;11.70;8.83;;;1.20;99.90;;;;;;5037490;28;20181;-86
2022/01/10 05:08:59;;;;;;;11.07;8.70;;;1.20;99.90;;;;;;5037772;28;20238;-89
2022/01/10 05:11:45;;;;;;;11.07;8.87;;;1.20;99.90;;;;;;5041698;28;20193;-89
2022/01/10 05:14:11;;;;;;;11.53;8.80;;;1.20;99.90;;;;;;5039760;28;20181;-89
2022/01/10 05:16:40;;;;;;;10.50;8.73;;;1.20;99.90;;;;;;5039561;28;20254;-89
2022/01/10 05:19:08;;;;;;;11.13;8.33;;;1.20;99.90;;;;;;5039680;28;20180;-89
2022/01/10 05:21:35;;;;;;;12.47;9.27;;;1.20;99.90;;;;;;5025291;28;20213;-89
2022/01/10 05:24:02;;;;;;;11.20;8.80;;;1.20;99.90;;;;;;5036085;28;20239;-89
2022/01/10 05:26:28;;;;;;;10.90;7.70;;;1.20;99.90;;;;;;5035129;28;20220;-89
2022/01/10 05:28:57;;;;;;;12.53;8.83;;;1.20;99.90;;;;;;5034593;28;20216;-89
2022/01/10 05:31:23;;;;;;;11.57;8.60;;;1.20;99.90;;;;;;5034736;28;20194;-89
2022/01/10 05:34:04;;;;;;;12.70;9.13;;;1.20;99.90;;;;;;5035476;28;20188;-89
2022/01/10 05:36:30;;;;;;;12.40;9.20;;;1.20;99.90;;;;;;5036066;28;20209;-89
2022/01/10 05:38:57;;;;;;;12.33;8.90;;;1.20;99.90;;;;;;5035419;28;20181;-89
2022/01/10 05:41:24;;;;;;;12.77;8.50;;;1.20;99.90;;;;;;5035217;28;20200;-89
2022/01/10 05:43:51;;;;;;;13.37;8.87;;;1.20;99.90;;;;;;5035354;28;20181;-89
2022/01/10 05:46:20;;;;;;;12.73;8.67;;;1.20;99.90;;;;;;5035223;28;20215;-89
2022/01/10 05:48:53;;;;;;;11.47;8.73;;;1.20;99.90;;;;;;5034759;28;20179;-89
2022/01/10 05:51:20;;;;;;;13.03;8.60;;;1.20;99.90;;;;;;5046174;28;20227;-89
2022/01/10 05:53:51;;;;;;;11.33;8.33;;;1.30;99.90;;;;;;5039330;28;20181;-89
2022/01/10 05:56:18;;;;;;;12.30;8.87;;;1.20;99.90;;;;;;5038716;28;20226;-89
2022/01/10 05:58:52;;;;;;;15.57;9.83;;;1.30;99.90;;;;;;5039312;28;20195;-88
2022/01/10 06:01:19;;;;;;;12.80;8.87;;;1.30;99.90;;;;;;5038239;28;20200;-90
2022/01/10 06:03:50;;;;;;;10.50;8.00;;;1.20;99.90;;;;;;5039568;28;20207;-88
2022/01/10 06:06:22;;;;;;;13.03;9.10;;;1.20;99.90;;;;;;5039769;28;20175;-88
2022/01/10 06:08:49;;;;;;;12.23;8.13;;;1.30;99.90;;;;;;5037241;28;20193;-88
2022/01/10 06:11:15;;;;;;;11.80;8.47;;;1.20;99.90;;;;;;5036335;28;20227;-89
2022/01/10 06:13:43;;;;;;;12.07;8.90;;;1.20;99.90;;;;;;5036775;28;20556;-89
2022/01/10 06:16:09;;;;;;;12.23;8.47;;;1.20;99.90;;;;;;5037166;28;20222;-88
2022/01/10 06:18:41;;;;;;;13.43;9.57;;;1.20;99.90;;;;;;5037135;28;20218;-88
2022/01/10 06:21:08;;;;;;;13.87;8.40;;;1.20;99.90;;;;;;5036865;28;20245;-88
2022/01/10 06:23:34;;;;;;;12.13;8.80;;;1.20;99.90;;;;;;5069331;28;20258;-89
2022/01/10 06:26:00;;;;;;;13.97;8.63;;;1.30;99.90;;;;;;5073098;28;20192;-88
2022/01/10 06:28:27;;;;;;;13.57;9.70;;;1.30;99.90;;;;;;5073110;28;20195;-88
2022/01/10 06:30:55;;;;;;;11.60;8.80;;;1.30;99.90;;;;;;5072877;28;20196;-88
2022/01/10 06:33:24;;;;;;;11.83;8.50;;;1.30;99.90;;;;;;5073135;28;20183;-88
2022/01/10 06:35:52;;;;;;;12.40;8.67;;;1.30;99.90;;;;;;5073334;28;20185;-88
2022/01/10 06:38:18;;;;;;;12.80;9.13;;;1.30;99.90;;;;;;5056356;28;20211;-88
2022/01/10 06:40:44;;;;;;;14.90;9.57;;;1.30;99.90;;;;;;5073027;28;20512;-88
2022/01/10 06:43:10;;;;;;;13.70;9.17;;;1.30;99.90;;;;;;5073091;28;20198;-88
2022/01/10 06:45:37;;;;;;;14.23;9.07;;;1.30;99.90;;;;;;5072883;28;20173;-89
2022/01/10 06:48:05;;;;;;;11.73;8.70;;;1.30;99.90;;;;;;5072883;28;20184;-88
2022/01/10 06:50:34;;;;;;;11.07;8.23;;;1.30;99.90;;;;;;5056219;28;20238;-88
2022/01/10 06:53:02;;;;;;;12.20;9.77;;;1.30;99.90;;;;;;5039443;28;20187;-88
2022/01/10 06:55:29;;;;;;;14.43;9.30;;;1.20;99.90;;;;;;5039945;28;20195;-88
2022/01/10 06:57:58;;;;;;;13.63;9.43;;;1.20;99.90;;;;;;5040049;28;20204;-89
2022/01/10 07:00:26;;;;;;;13.83;10.13;;;1.30;99.90;;;;;;5039976;28;20188;-88
2022/01/10 07:02:56;;;;;;;12.43;9.00;;;1.30;99.90;;;;;;5056279;28;20191;-89
2022/01/10 07:05:22;;;;;;;11.57;8.77;;;1.30;99.90;;;;;;5039482;28;20215;-89
2022/01/10 07:07:52;;;;;;;17.20;9.67;;;1.30;99.90;;;;;;5040143;28;20268;-88
2022/01/10 07:10:31;;;;;;;11.03;9.17;;;1.30;99.90;;;;;;5040850;28;20188;-88
2022/01/10 07:12:58;;;;;;;12.67;9.00;;;1.30;99.90;;;;;;5039614;28;20188;-88
2022/01/10 07:15:26;;;;;;;13.37;9.63;;;1.40;99.90;;;;;;5039486;28;20267;-88
2022/01/10 07:17:55;;;;;;;12.73;9.60;;;1.40;99.90;;;;;;5039651;28;20222;-88
2022/01/10 07:20:22;;;;;;;16.83;9.37;;;1.40;99.90;;;;;;5039373;28;20291;-88
2022/01/10 07:22:48;;;;;;;15.10;9.80;;;1.40;99.90;;;;;;5039258;28;20627;-88
2022/01/10 07:25:15;;;;;;;12.57;9.50;;;1.40;99.90;;;;;;5039299;28;20272;-88
2022/01/10 07:27:40;;;;;;;14.50;10.27;;;1.40;99.90;;;;;;5038981;28;20209;-88
2022/01/10 07:30:07;;;;;;;19.43;11.83;;;1.50;99.90;;;;;;5039029;28;20215;-88
2022/01/10 07:32:33;;;;;;;17.50;12.13;;;1.40;99.90;;;;;;5039093;28;20215;-88
2022/01/10 07:34:59;;;;;;;17.00;11.73;;;1.40;99.90;;;;;;5038557;28;20185;-88
2022/01/10 07:37:25;;;;;;;18.60;12.23;;;1.40;99.90;;;;;;5038970;28;20197;-88
2022/01/10 07:39:51;;;;;;;15.93;12.00;;;1.40;99.90;;;;;;5038592;28;20246;-89
2022/01/10 07:42:17;;;;;;;16.93;11.53;;;1.40;99.90;;;;;;5038799;28;20195;-88
2022/01/10 07:44:48;;;;;;;16.00;11.43;;;1.30;99.90;;;;;;5039970;28;20267;-88
2022/01/10 07:47:15;;;;;;;15.03;10.77;;;1.30;99.90;;;;;;5039157;28;20211;-88
2022/01/10 07:49:41;;;;;;;12.70;10.13;;;1.30;99.90;;;;;;5038689;28;20531;-88
2022/01/10 07:52:07;;;;;;;15.17;10.60;;;1.40;99.90;;;;;;5038568;28;20238;-88
2022/01/10 07:54:33;;;;;;;13.87;9.90;;;1.30;99.90;;;;;;5055201;28;20188;-88
2022/01/10 07:56:59;;;;;;;13.63;10.40;;;1.30;99.90;;;;;;5055366;28;20219;-88
2022/01/10 07:59:25;;;;;;;13.90;10.00;;;1.40;99.90;;;;;;5038435;28;20188;-88
2022/01/10 08:01:52;;;;;;;14.70;10.80;;;1.40;99.90;;;;;;5039078;28;20203;-88
2022/01/10 08:04:17;;;;;;;15.70;9.77;;;1.40;99.90;;;;;;5055680;28;20181;-89
2022/01/10 08:06:43;;;;;;;13.90;10.33;;;1.50;99.90;;;;;;5055515;28;20195;-88
2022/01/10 08:09:09;;;;;;;16.30;11.37;;;1.50;99.90;;;;;;5039391;28;20551;-88
2022/01/10 08:11:35;;;;;;;18.43;12.10;;;1.50;99.90;;;;;;5039986;28;20295;-89
2022/01/10 08:14:05;;;;;;;16.13;10.93;;;1.60;99.90;;;;;;5039961;28;20276;-88
2022/01/10 08:16:31;;;;;;;15.70;10.43;;;1.60;99.90;;;;;;5038325;28;20269;-88
2022/01/10 08:18:58;;;;;;;15.90;11.50;;;1.60;99.90;;;;;;5034934;28;20186;-89
2022/01/10 08:21:24;;;;;;;15.73;11.10;;;1.60;99.90;;;;;;5045673;28;20208;-88
2022/01/10 08:23:50;;;;;;;15.83;11.27;;;1.60;99.90;;;;;;5048235;28;20169;-88
2022/01/10 08:26:16;;;;;;;13.60;9.73;;;1.60;99.90;;;;;;5046689;28;20174;-89
2022/01/10 08:28:43;;;;;;;12.97;9.80;;;1.60;99.90;;;;;;5043693;28;20273;-87
2022/01/10 08:31:10;;;;;;;12.97;9.83;;;1.60;99.90;;;;;;5028714;28;20202;-87
2022/01/10 08:33:37;;;;;;;13.10;10.00;;;1.70;99.90;;;;;;5042484;28;20209;-87
2022/01/10 08:36:03;;;;;;;15.20;9.87;;;1.70;99.90;;;;;;5051450;28;20217;-89
2022/01/10 08:38:29;;;;;;;12.23;9.53;;;1.70;99.90;;;;;;5052143;28;20208;-89
2022/01/10 08:40:55;;;;;;;14.50;9.80;;;1.70;99.90;;;;;;5047147;28;20208;-89
2022/01/10 08:43:21;;;;;;;14.40;10.10;;;1.70;99.90;;;;;;5024455;28;20183;-89
2022/01/10 08:45:50;;;;;;;13.17;9.57;;;1.70;99.90;;;;;;5050890;28;20173;-89
2022/01/10 08:48:16;;;;;;;13.60;10.03;;;1.70;99.90;;;;;;5050896;28;20185;-88
2022/01/10 08:50:42;;;;;;;12.87;9.60;;;1.70;99.90;;;;;;5029533;28;20238;-89
2022/01/10 08:53:09;;;;;;;15.97;11.13;;;1.80;99.90;;;;;;5030238;28;20177;-88
2022/01/10 08:55:36;;;;;;;15.83;11.20;;;1.90;99.90;;;;;;5057851;28;20184;-89
2022/01/10 08:58:15;;;;;;;15.17;10.57;;;2.00;99.90;;;;;;5066569;28;20280;-88
2022/01/10 09:00:41;;;;;;;14.17;10.43;;;2.10;99.90;;;;;;5059941;28;20170;-89
2022/01/10 09:03:07;;;;;;;14.67;10.77;;;2.20;99.90;;;;;;5033737;28;20200;-89
2022/01/10 09:05:33;;;;;;;14.10;10.77;;;2.20;99.90;;;;;;5034125;28;20268;-89
2022/01/10 09:08:01;;;;;;;15.97;11.20;;;2.30;99.90;;;;;;5033784;28;20211;-88
2022/01/10 09:10:27;;;;;;;13.97;11.47;;;2.30;99.90;;;;;;5033614;28;20197;-88
2022/01/10 09:12:54;;;;;;;15.10;10.77;;;2.40;99.90;;;;;;5033800;28;20194;-89
2022/01/10 09:15:20;;;;;;;13.13;9.97;;;2.40;99.90;;;;;;5033868;28;20217;-89
2022/01/10 09:17:46;;;;;;;14.80;10.47;;;2.40;99.90;;;;;;5025969;28;20280;-89
2022/01/10 09:20:12;;;;;;;15.30;10.93;;;2.40;99.90;;;;;;5047174;28;20185;-89
2022/01/10 09:22:39;;;;;;;14.33;10.60;;;2.40;99.90;;;;;;5039446;28;20205;-89
2022/01/10 09:25:06;;;;;;;13.90;10.43;;;2.40;99.90;;;;;;5013190;28;20852;-89
2022/01/10 09:27:32;;;;;;;13.97;10.13;;;2.40;99.90;;;;;;5047720;28;20189;-89
2022/01/10 09:29:58;;;;;;;14.43;9.83;;;2.40;99.90;;;;;;5047753;28;20185;-90
2022/01/10 09:32:24;;;;;;;13.77;10.33;;;2.50;99.90;;;;;;5024575;28;20202;-89
2022/01/10 09:34:50;;;;;;;14.60;10.33;;;2.60;99.90;;;;;;5049457;28;20229;-89
2022/01/10 09:37:16;;;;;;;16.83;11.23;;;2.60;99.90;;;;;;5052288;28;20323;-89
2022/01/10 09:39:42;;;;;;;16.13;10.37;;;2.70;99.90;;;;;;5058004;28;20181;-89
2022/01/10 09:42:10;;;;;;;21.53;13.70;;;2.70;99.90;;;;;;5041872;28;20208;-89
2022/01/10 09:44:36;;;;;;;15.77;11.40;;;2.80;99.90;;;;;;5041817;28;20173;-89
2022/01/10 09:47:02;;;;;;;12.23;9.90;;;2.80;99.90;;;;;;5027122;28;20308;-89
2022/01/10 09:49:29;;;;;;;13.83;9.70;;;2.80;99.90;;;;;;5043133;28;20181;-89
2022/01/10 09:51:57;;;;;;;12.63;9.90;;;2.90;99.90;;;;;;5025919;28;20295;-89
2022/01/10 09:54:23;;;;;;;14.17;10.13;;;3.00;99.90;;;;;;5052556;28;20281;-91
2022/01/10 09:56:49;;;;;;;12.27;9.07;;;3.00;99.90;;;;;;5017264;28;20213;-91
2022/01/10 09:59:15;;;;;;;13.13;9.77;;;3.10;99.90;;;;;;5032733;28;20262;-89
2022/01/10 10:01:43;;;;;;;13.57;10.40;;;3.10;99.90;;;;;;5016693;28;20213;-89
2022/01/10 10:04:11;;;;;;;14.30;9.77;;;3.20;99.90;;;;;;5015863;28;20178;-88
2022/01/10 10:06:37;;;;;;;13.57;9.60;;;3.20;99.90;;;;;;5033010;28;20178;-89
2022/01/10 10:09:06;;;;;;;13.80;9.27;;;3.20;99.90;;;;;;5032876;28;20178;-88
2022/01/10 10:11:58;;;;;;;11.20;8.97;;;3.20;99.90;;;;;;5032756;28;20193;-88
2022/01/10 10:14:24;;;;;;;13.60;9.70;;;3.30;99.90;;;;;;5029232;28;20192;-89
2022/01/10 10:16:53;;;;;;;14.50;9.73;;;3.30;99.90;;;;;;5032798;28;20210;-88
2022/01/10 10:19:21;;;;;;;15.60;10.47;;;3.40;99.90;;;;;;5032696;28;20181;-89
2022/01/10 10:21:49;;;;;;;16.00;11.30;;;3.50;99.90;;;;;;5048584;28;20209;-89
2022/01/10 10:24:15;;;;;;;14.93;10.07;;;3.60;99.90;;;;;;5036100;28;20261;-89
2022/01/10 10:26:42;;;;;;;14.77;10.80;;;3.60;99.90;;;;;;5036230;28;20178;-89
2022/01/10 10:29:09;;;;;;;19.87;11.47;;;3.70;99.90;;;;;;5036030;28;20250;-88
2022/01/10 10:31:55;;;;;;;16.53;10.27;;;3.80;99.90;;;;;;5035714;28;20246;-89
2022/01/10 10:34:22;;;;;;;16.30;10.90;;;3.70;99.90;;;;;;5036350;28;20772;-89
2022/01/10 10:37:02;;;;;;;15.53;10.93;;;3.80;99.90;;;;;;5035761;28;20230;-89
2022/01/10 10:39:30;;;;;;;16.03;10.87;;;3.70;99.90;;;;;;5036000;28;20231;-89
2022/01/10 10:42:00;;;;;;;17.63;11.00;;;3.90;99.90;;;;;;5035881;28;20209;-89
2022/01/10 10:44:27;;;;;;;14.77;10.40;;;4.10;99.90;;;;;;5036020;28;20204;-90
2022/01/10 10:46:53;;;;;;;16.90;10.50;;;4.30;99.90;;;;;;5031591;28;20210;-88
2022/01/10 10:49:36;;;;;;;15.23;9.57;;;4.30;99.90;;;;;;5043248;28;20222;-89
2022/01/10 10:52:06;;;;;;;14.40;8.00;;;4.40;99.90;;;;;;5060326;28;20205;-89
2022/01/10 10:54:39;;;;;;;14.23;7.93;;;4.40;99.90;;;;;;5051023;28;20174;-88
2022/01/10 10:57:07;;;;;;;14.33;8.13;;;4.30;99.90;;;;;;5025329;28;20205;-89
2022/01/10 10:59:39;;;;;;;14.13;8.23;;;4.30;99.90;;;;;;5051688;28;20178;-89
2022/01/10 11:02:06;;;;;;;13.43;8.73;;;4.20;99.90;;;;;;5061254;28;20205;-89
2022/01/10 11:04:32;;;;;;;11.07;8.10;;;4.20;99.90;;;;;;5043393;28;20176;-88
2022/01/10 11:06:59;;;;;;;55.47;26.47;;;4.30;99.90;;;;;;5043691;28;20197;-89
2022/01/10 11:09:25;;;;;;;132.27;55.27;;;4.20;99.90;;;;;;5058218;28;20166;-89
2022/01/10 11:11:52;;;;;;;61.10;30.07;;;4.20;99.90;;;;;;5063497;28;20442;-89
2022/01/10 11:14:22;;;;;;;41.57;18.90;;;4.20;99.90;;;;;;5030655;28;20179;-89
2022/01/10 11:16:54;;;;;;;24.93;13.30;;;4.20;99.90;;;;;;5048361;28;20212;-88
2022/01/10 11:19:25;;;;;;;24.67;13.87;;;4.20;99.90;;;;;;5045915;28;20272;-89
2022/01/10 11:22:07;;;;;;;23.03;14.73;;;4.20;99.90;;;;;;5049249;28;20198;-89
2022/01/10 11:24:54;;;;;;;21.20;11.07;;;4.10;99.90;;;;;;5031419;28;20172;-88
2022/01/10 11:27:34;;;;;;;25.67;14.97;;;4.00;99.90;;;;;;5064304;28;20195;-89
2022/01/10 11:30:28;;;;;;;16.70;9.17;;;4.00;99.90;;;;;;5064256;28;20208;-88
2022/01/10 11:33:05;;;;;;;10.10;7.13;;;3.90;99.90;;;;;;5040672;28;20185;-89
2022/01/10 11:35:34;;;;;;;20.07;10.97;;;3.80;99.90;;;;;;5062720;28;20272;-89
2022/01/10 11:38:14;;;;;;;19.93;10.73;;;3.80;99.90;;;;;;5070357;28;20287;-88
2022/01/10 11:40:41;;;;;;;22.63;13.13;;;3.80;99.90;;;;;;5056819;28;20180;-89
2022/01/10 11:43:33;;;;;;;13.80;7.13;;;3.90;99.90;;;;;;5056575;28;20192;-88
2022/01/10 11:46:17;;;;;;;11.40;6.53;;;3.80;99.90;;;;;;5073817;28;20276;-89
2022/01/10 11:48:46;;;;;;;13.83;7.87;;;3.80;99.90;;;;;;5056038;28;20185;-89
2022/01/10 11:51:17;;;;;;;13.67;6.63;;;3.80;99.90;;;;;;5055423;28;20209;-90
2022/01/10 11:53:46;;;;;;;10.13;6.80;;;3.80;99.90;;;;;;5037829;28;20221;-89
2022/01/10 11:56:23;;;;;;;10.80;6.83;;;3.80;99.90;;;;;;5043150;28;20193;-88
2022/01/10 11:59:14;;;;;;;10.30;7.37;;;3.90;99.90;;;;;;5062174;28;20208;-88
2022/01/10 12:01:48;;;;;;;14.77;7.80;;;3.80;99.90;;;;;;5023274;28;20662;-89
2022/01/10 12:04:23;;;;;;;11.00;7.50;;;3.80;99.90;;;;;;5026835;28;20185;-88
2022/01/10 12:06:51;;;;;;;14.57;7.97;;;3.80;99.90;;;;;;5055105;28;20177;-88
2022/01/10 12:09:18;;;;;;;13.20;7.20;;;3.70;99.90;;;;;;5056420;28;20192;-88
2022/01/10 12:11:46;;;;;;;12.97;8.00;;;3.80;99.90;;;;;;5043808;28;20194;-89
2022/01/10 12:14:13;;;;;;;13.77;7.17;;;3.80;99.90;;;;;;5027837;28;20185;-88
2022/01/10 12:16:40;;;;;;;15.27;7.50;;;3.80;99.90;;;;;;5028942;28;20232;-89
2022/01/10 12:19:07;;;;;;;12.70;7.77;;;3.70;99.90;;;;;;5053055;28;20173;-88
2022/01/10 12:21:35;;;;;;;13.17;7.70;;;3.70;99.90;;;;;;5040972;28;20201;-89
2022/01/10 12:24:02;;;;;;;12.57;7.00;;;3.80;99.90;;;;;;5023809;28;20228;-88
2022/01/10 12:26:29;;;;;;;10.13;6.93;;;3.80;99.90;;;;;;5022462;28;20205;-89
2022/01/10 12:28:59;;;;;;;12.33;6.80;;;3.90;99.90;;;;;;5043323;28;20235;-88
2022/01/10 12:31:28;;;;;;;16.70;7.57;;;3.90;99.90;;;;;;5026122;28;20194;-88
2022/01/10 12:33:56;;;;;;;12.47;6.37;;;3.90;99.90;;;;;;5044085;28;20174;-88
2022/01/10 12:36:26;;;;;;;11.53;6.43;;;3.90;99.90;;;;;;5051490;28;20201;-88
2022/01/10 12:38:57;;;;;;;12.63;6.30;;;4.00;99.90;;;;;;5055183;28;20250;-90
2022/01/10 12:41:24;;;;;;;9.87;6.07;;;4.10;99.90;;;;;;5056857;28;20201;-90
2022/01/10 12:43:50;;;;;;;10.50;5.40;;;4.20;99.90;;;;;;5056868;28;20174;-90
2022/01/10 12:46:20;;;;;;;7.67;5.27;;;4.20;99.90;;;;;;5040052;28;20180;-90
2022/01/10 12:48:48;;;;;;;10.50;5.33;;;4.30;99.90;;;;;;5056527;28;20183;-90
2022/01/10 12:51:15;;;;;;;9.83;5.17;;;4.40;99.90;;;;;;5056262;28;20301;-90
2022/01/10 12:53:47;;;;;;;13.73;5.60;;;4.50;99.90;;;;;;5056455;28;20177;-90
2022/01/10 12:56:21;;;;;;;12.53;5.20;;;4.60;99.90;;;;;;5053999;28;20175;-90